createdAt,value
2022-10-01T00:01:16.111Z,12.65
2022-10-01T00:03:43.765Z,12.55
2022-10-01T00:06:19.273Z,12.64
2022-10-01T00:08:49.687Z,12.65
2022-10-01T00:11:23.708Z,12.82
2022-10-01T00:13:52.029Z,12.84
2022-10-01T00:16:23.580Z,12.90
2022-10-01T00:18:52.600Z,12.89
2022-10-01T00:21:26.675Z,12.83
2022-10-01T00:24:05.502Z,12.76
2022-10-01T00:26:35.573Z,12.69
2022-10-01T00:29:10.550Z,12.69
2022-10-01T00:31:37.974Z,12.54
2022-10-01T00:34:06.393Z,12.48
2022-10-01T00:36:33.891Z,12.40
2022-10-01T00:39:00.979Z,12.32
2022-10-01T00:41:32.416Z,12.28
2022-10-01T00:44:04.243Z,12.26
2022-10-01T00:46:42.320Z,12.27
2022-10-01T00:49:20.044Z,12.30
2022-10-01T00:51:55.622Z,12.40
2022-10-01T00:54:31.152Z,12.34
2022-10-01T00:56:59.751Z,12.44
2022-10-01T00:59:28.379Z,12.44
2022-10-01T01:01:55.300Z,12.48
2022-10-01T01:04:22.868Z,12.53
2022-10-01T01:07:00.382Z,12.55
2022-10-01T01:09:33.634Z,12.52
2022-10-01T01:12:39.595Z,12.49
2022-10-01T01:15:25.594Z,12.27
2022-10-01T01:18:02.407Z,12.31
2022-10-01T01:21:02.135Z,12.52
2022-10-01T01:23:47.451Z,12.55
2022-10-01T01:26:41.074Z,12.55
2022-10-01T01:29:38.237Z,12.54
2022-10-01T01:32:14.822Z,12.52
2022-10-01T01:34:45.529Z,12.53
2022-10-01T01:37:17.478Z,12.59
2022-10-01T01:39:50.294Z,12.60
2022-10-01T01:42:31.156Z,12.51
2022-10-01T01:45:01.001Z,12.45
2022-10-01T01:47:30.455Z,12.44
2022-10-01T01:49:58.945Z,12.34
2022-10-01T01:52:25.999Z,12.29
2022-10-01T01:54:54.119Z,12.19
2022-10-01T01:57:21.542Z,12.09
2022-10-01T01:59:48.558Z,11.98
2022-10-01T02:02:28.180Z,11.92
2022-10-01T02:05:03.462Z,11.83
2022-10-01T02:07:52.832Z,11.76
2022-10-01T02:10:34.601Z,11.51
2022-10-01T02:13:25.450Z,11.39
2022-10-01T02:16:14.934Z,11.31
2022-10-01T02:19:05.625Z,11.35
2022-10-01T02:22:03.108Z,11.26
2022-10-01T02:24:56.941Z,11.01
2022-10-01T02:27:31.745Z,11.03
2022-10-01T02:30:02.557Z,11.02
2022-10-01T02:32:32.189Z,11.03
2022-10-01T02:35:01.043Z,11.00
2022-10-01T02:37:33.822Z,10.93
2022-10-01T02:40:03.682Z,10.91
2022-10-01T02:42:33.182Z,10.82
2022-10-01T02:45:02.538Z,10.80
2022-10-01T02:48:02.355Z,10.80
2022-10-01T02:50:39.269Z,10.75
2022-10-01T02:53:16.937Z,10.73
2022-10-01T02:55:46.126Z,10.63
2022-10-01T02:58:12.929Z,10.52
2022-10-01T03:00:39.714Z,10.40
2022-10-01T03:03:06.496Z,10.28
2022-10-01T03:05:33.306Z,10.26
2022-10-01T03:08:00.222Z,10.23
2022-10-01T03:10:27.005Z,10.17
2022-10-01T03:12:54.058Z,10.06
2022-10-01T03:15:20.939Z,9.89
2022-10-01T03:17:54.726Z,9.72
2022-10-01T03:20:22.489Z,9.44
2022-10-01T03:22:49.476Z,9.30
2022-10-01T03:25:16.638Z,9.43
2022-10-01T03:27:44.207Z,9.49
2022-10-01T03:30:11.953Z,9.56
2022-10-01T03:32:38.786Z,9.59
2022-10-01T03:35:06.241Z,9.65
2022-10-01T03:37:33.021Z,9.68
2022-10-01T03:40:00.000Z,9.69
2022-10-01T03:42:26.790Z,9.61
2022-10-01T03:44:53.548Z,9.64
2022-10-01T03:47:22.168Z,9.68
2022-10-01T03:49:48.953Z,9.68
2022-10-01T03:52:15.741Z,9.71
2022-10-01T03:54:42.504Z,9.74
2022-10-01T03:57:09.324Z,9.75
2022-10-01T03:59:36.117Z,9.72
2022-10-01T04:02:02.970Z,9.68
2022-10-01T04:04:29.859Z,9.64
2022-10-01T04:06:56.626Z,9.62
2022-10-01T04:09:23.485Z,9.58
2022-10-01T04:11:50.540Z,9.54
2022-10-01T04:14:17.367Z,9.53
2022-10-01T04:16:44.178Z,9.54
2022-10-01T04:19:11.088Z,9.54
2022-10-01T04:21:39.035Z,9.58
2022-10-01T04:24:06.088Z,9.56
2022-10-01T04:26:32.891Z,9.52
2022-10-01T04:28:59.712Z,9.55
2022-10-01T04:31:26.842Z,9.62
2022-10-01T04:33:56.583Z,9.55
2022-10-01T04:36:25.056Z,9.57
2022-10-01T04:38:58.038Z,9.49
2022-10-01T04:41:30.337Z,9.47
2022-10-01T04:43:59.053Z,9.46
2022-10-01T04:46:26.260Z,9.49
2022-10-01T04:48:53.080Z,9.54
2022-10-01T04:51:19.877Z,9.52
2022-10-01T04:53:46.997Z,9.48
2022-10-01T04:56:13.787Z,9.43
2022-10-01T04:58:41.284Z,9.48
2022-10-01T05:01:08.131Z,9.50
2022-10-01T05:03:35.485Z,9.45
2022-10-01T05:06:02.257Z,9.37
2022-10-01T05:08:29.277Z,9.31
2022-10-01T05:10:59.006Z,9.30
2022-10-01T05:13:29.830Z,9.30
2022-10-01T05:15:56.687Z,9.28
2022-10-01T05:18:23.483Z,9.38
2022-10-01T05:20:50.269Z,9.47
2022-10-01T05:23:17.008Z,9.55
2022-10-01T05:25:46.740Z,9.62
2022-10-01T05:28:15.999Z,9.61
2022-10-01T05:30:46.753Z,9.66
2022-10-01T05:33:13.660Z,9.73
2022-10-01T05:35:41.503Z,9.79
2022-10-01T05:38:08.258Z,9.84
2022-10-01T05:40:35.045Z,9.79
2022-10-01T05:43:03.025Z,9.95
2022-10-01T05:45:31.511Z,9.99
2022-10-01T05:48:03.923Z,10.00
2022-10-01T05:50:34.179Z,10.20
2022-10-01T05:53:02.110Z,10.32
2022-10-01T05:55:34.452Z,10.53
2022-10-01T05:58:05.050Z,10.85
2022-10-01T06:00:33.765Z,11.02
2022-10-01T06:03:02.307Z,11.12
2022-10-01T06:05:31.489Z,11.20
2022-10-01T06:07:58.837Z,11.22
2022-10-01T06:10:28.085Z,11.22
2022-10-01T06:13:02.981Z,11.45
2022-10-01T06:15:31.688Z,11.56
2022-10-01T06:18:03.031Z,11.76
2022-10-01T06:20:29.932Z,11.90
2022-10-01T06:22:58.291Z,12.09
2022-10-01T06:25:29.585Z,12.33
2022-10-01T06:27:59.123Z,12.37
2022-10-01T06:30:31.630Z,12.58
2022-10-01T06:33:06.038Z,12.63
2022-10-01T06:35:34.302Z,12.69
2022-10-01T06:38:04.735Z,12.71
2022-10-01T06:40:32.144Z,12.96
2022-10-01T06:42:59.462Z,12.90
2022-10-01T06:45:27.780Z,13.05
2022-10-01T06:48:02.498Z,13.25
2022-10-01T06:50:31.057Z,13.30
2022-10-01T06:52:58.367Z,13.38
2022-10-01T06:55:32.023Z,13.53
2022-10-01T06:58:05.363Z,13.73
2022-10-01T07:00:35.785Z,13.91
2022-10-01T07:03:06.507Z,14.04
2022-10-01T07:05:33.329Z,14.14
2022-10-01T07:08:00.333Z,14.26
2022-10-01T07:10:27.202Z,14.40
2022-10-01T07:12:53.980Z,14.38
2022-10-01T07:15:22.812Z,14.09
2022-10-01T07:17:51.027Z,14.03
2022-10-01T07:20:20.115Z,14.05
2022-10-01T07:22:48.737Z,14.31
2022-10-01T07:25:16.130Z,14.39
2022-10-01T07:27:43.014Z,14.60
2022-10-01T07:30:10.491Z,14.64
2022-10-01T07:32:37.302Z,14.73
2022-10-01T07:35:05.871Z,14.75
2022-10-01T07:37:32.721Z,14.72
2022-10-01T07:40:01.984Z,14.85
2022-10-01T07:42:31.275Z,15.06
2022-10-01T07:44:58.075Z,15.10
2022-10-01T07:47:24.890Z,14.99
2022-10-01T07:49:51.702Z,15.26
2022-10-01T07:52:18.478Z,15.42
2022-10-01T07:54:45.324Z,15.42
2022-10-01T07:57:12.313Z,15.62
2022-10-01T07:59:40.879Z,15.71
2022-10-01T08:02:18.880Z,15.77
2022-10-01T08:05:06.018Z,15.77
2022-10-01T08:07:32.833Z,15.93
2022-10-01T08:09:59.638Z,16.02
2022-10-01T08:12:30.383Z,16.07
2022-10-01T08:14:57.235Z,15.83
2022-10-01T08:17:28.586Z,16.16
2022-10-01T08:19:56.285Z,16.41
2022-10-01T08:22:23.047Z,16.44
2022-10-01T08:24:49.891Z,16.61
2022-10-01T08:27:16.681Z,16.11
2022-10-01T08:29:43.510Z,16.07
2022-10-01T08:32:11.253Z,16.35
2022-10-01T08:34:38.074Z,16.45
2022-10-01T08:37:05.326Z,16.63
2022-10-01T08:39:32.193Z,16.61
2022-10-01T08:42:31.676Z,16.76
2022-10-01T08:45:02.743Z,16.51
2022-10-01T08:47:38.507Z,16.48
2022-10-01T08:50:35.972Z,16.15
2022-10-01T08:53:11.928Z,16.12
2022-10-01T08:55:41.157Z,16.54
2022-10-01T08:58:21.849Z,16.39
2022-10-01T09:00:49.664Z,16.53
2022-10-01T09:03:18.108Z,16.44
2022-10-01T09:06:16.343Z,16.66
2022-10-01T09:09:04.732Z,16.61
2022-10-01T09:11:49.946Z,16.73
2022-10-01T09:14:37.349Z,16.11
2022-10-01T09:17:48.115Z,16.52
2022-10-01T09:20:30.486Z,16.00
2022-10-01T09:23:32.463Z,16.58
2022-10-01T09:25:59.936Z,16.40
2022-10-01T09:28:33.562Z,16.77
2022-10-01T09:31:20.049Z,16.46
2022-10-01T09:34:16.976Z,16.56
2022-10-01T09:37:05.499Z,17.12
2022-10-01T09:39:40.315Z,16.87
2022-10-01T09:42:07.506Z,16.80
2022-10-01T09:44:34.901Z,16.80
2022-10-01T09:47:01.680Z,16.92
2022-10-01T09:49:39.493Z,16.20
2022-10-01T09:52:16.061Z,16.93
2022-10-01T09:55:38.225Z,16.88
2022-10-01T09:58:18.689Z,16.47
2022-10-01T10:00:45.715Z,16.33
2022-10-01T10:03:29.869Z,15.98
2022-10-01T10:06:00.213Z,16.06
2022-10-01T10:08:34.892Z,16.07
2022-10-01T10:11:10.869Z,15.66
2022-10-01T10:13:41.623Z,15.93
2022-10-01T10:16:35.934Z,15.92
2022-10-01T10:19:27.547Z,15.72
2022-10-01T10:22:00.605Z,16.13
2022-10-01T10:24:35.092Z,15.60
2022-10-01T10:27:06.783Z,15.15
2022-10-01T10:29:37.021Z,15.33
2022-10-01T10:32:25.414Z,15.59
2022-10-01T10:35:02.858Z,15.49
2022-10-01T10:37:38.014Z,15.52
2022-10-01T10:40:10.434Z,15.27
2022-10-01T10:42:38.814Z,14.92
2022-10-01T10:45:20.004Z,15.19
2022-10-01T10:47:51.085Z,15.39
2022-10-01T10:50:39.754Z,15.42
2022-10-01T10:53:22.299Z,15.31
2022-10-01T10:55:57.273Z,15.12
2022-10-01T10:58:30.251Z,15.02
2022-10-01T11:01:02.553Z,14.64
2022-10-01T11:03:32.451Z,14.48
2022-10-01T11:06:11.273Z,14.36
2022-10-01T11:08:39.468Z,14.66
2022-10-01T11:11:23.127Z,14.40
2022-10-01T11:14:04.931Z,14.35
2022-10-01T11:17:00.387Z,14.47
2022-10-01T11:19:59.943Z,14.43
2022-10-01T11:22:40.281Z,13.99
2022-10-01T11:25:31.114Z,14.36
2022-10-01T11:28:33.281Z,14.69
2022-10-01T11:31:37.545Z,14.50
2022-10-01T11:34:14.718Z,14.41
2022-10-01T11:37:07.986Z,14.54
2022-10-01T11:39:38.587Z,14.47
2022-10-01T11:42:17.303Z,14.63
2022-10-01T11:44:57.415Z,14.70
2022-10-01T11:47:36.313Z,14.65
2022-10-01T11:50:25.197Z,14.65
2022-10-01T11:53:21.087Z,14.70
2022-10-01T11:56:17.257Z,14.31
2022-10-01T11:58:54.217Z,14.46
2022-10-01T12:01:23.725Z,14.36
2022-10-01T12:03:53.162Z,14.32
2022-10-01T12:06:47.565Z,13.95
2022-10-01T12:09:23.161Z,14.44
2022-10-01T12:12:07.583Z,14.64
2022-10-01T12:14:49.414Z,14.64
2022-10-01T12:17:36.169Z,14.74
2022-10-01T12:20:13.152Z,14.70
2022-10-01T12:22:42.196Z,14.80
2022-10-01T12:25:13.452Z,14.50
2022-10-01T12:27:53.411Z,14.76
2022-10-01T12:30:34.334Z,14.71
2022-10-01T12:33:13.068Z,14.82
2022-10-01T12:36:03.291Z,14.88
2022-10-01T12:38:44.438Z,14.54
2022-10-01T12:42:03.822Z,14.39
2022-10-01T12:44:59.826Z,14.65
2022-10-01T12:47:55.447Z,14.73
2022-10-01T12:51:12.634Z,14.85
2022-10-01T12:54:00.408Z,14.83
2022-10-01T12:56:40.381Z,15.02
2022-10-01T12:59:18.865Z,14.84
2022-10-01T13:01:54.113Z,14.67
2022-10-01T13:04:51.381Z,14.70
2022-10-01T13:07:40.329Z,14.59
2022-10-01T13:10:27.658Z,14.60
2022-10-01T13:13:11.748Z,14.57
2022-10-01T13:15:42.115Z,14.68
2022-10-01T13:18:44.537Z,14.70
2022-10-01T13:21:21.129Z,14.34
2022-10-01T13:24:05.444Z,14.32
2022-10-01T13:26:39.734Z,14.69
2022-10-01T13:29:45.076Z,14.84
2022-10-01T13:32:50.768Z,14.76
2022-10-01T13:35:36.697Z,14.26
2022-10-01T13:38:40.516Z,14.08
2022-10-01T13:41:22.089Z,14.79
2022-10-01T13:44:01.627Z,14.60
2022-10-01T13:46:33.063Z,14.91
2022-10-01T13:49:17.070Z,14.64
2022-10-01T13:51:45.935Z,14.98
2022-10-01T13:54:48.600Z,14.83
2022-10-01T13:57:38.520Z,15.00
2022-10-01T14:00:17.523Z,14.69
2022-10-01T14:03:17.758Z,14.37
2022-10-01T14:05:44.964Z,14.65
2022-10-01T14:08:25.192Z,14.73
2022-10-01T14:11:16.758Z,15.02
2022-10-01T14:14:06.833Z,14.74
2022-10-01T14:16:45.961Z,14.86
2022-10-01T14:19:25.783Z,15.02
2022-10-01T14:22:10.463Z,15.32
2022-10-01T14:24:58.346Z,15.12
2022-10-01T14:27:41.940Z,15.22
2022-10-01T14:30:24.650Z,15.27
2022-10-01T14:33:16.642Z,15.22
2022-10-01T14:36:02.391Z,15.41
2022-10-01T14:38:29.350Z,15.34
2022-10-01T14:40:56.139Z,15.47
2022-10-01T14:43:30.870Z,15.68
2022-10-01T14:46:05.797Z,15.63
2022-10-01T14:48:35.732Z,15.62
2022-10-01T14:51:06.431Z,15.11
2022-10-01T14:53:38.397Z,15.15
2022-10-01T14:56:12.867Z,15.50
2022-10-01T14:58:47.328Z,15.56
2022-10-01T15:01:19.526Z,15.52
2022-10-01T15:03:47.896Z,15.92
2022-10-01T15:06:19.149Z,15.95
2022-10-01T15:08:49.449Z,15.70
2022-10-01T15:11:25.192Z,15.28
2022-10-01T15:13:55.828Z,15.73
2022-10-01T15:16:27.879Z,15.41
2022-10-01T15:19:03.857Z,15.81
2022-10-01T15:21:48.484Z,15.65
2022-10-01T15:24:44.164Z,15.13
2022-10-01T15:27:18.167Z,15.50
2022-10-01T15:29:45.824Z,15.66
2022-10-01T15:32:18.912Z,15.72
2022-10-01T15:34:54.987Z,15.58
2022-10-01T15:37:35.185Z,15.73
2022-10-01T15:40:05.553Z,15.52
2022-10-01T15:42:34.858Z,15.22
2022-10-01T15:45:07.654Z,15.31
2022-10-01T15:47:52.214Z,15.54
2022-10-01T15:50:29.881Z,15.30
2022-10-01T15:53:21.503Z,15.62
2022-10-01T15:55:56.912Z,15.81
2022-10-01T15:58:32.243Z,15.88
2022-10-01T16:01:12.347Z,15.49
2022-10-01T16:03:47.428Z,15.53
2022-10-01T16:06:39.815Z,15.47
2022-10-01T16:09:23.821Z,15.36
2022-10-01T16:12:06.704Z,15.40
2022-10-01T16:14:43.673Z,15.25
2022-10-01T16:17:20.064Z,15.12
2022-10-01T16:19:52.172Z,15.42
2022-10-01T16:22:35.320Z,15.54
2022-10-01T16:25:31.212Z,15.65
2022-10-01T16:28:05.874Z,15.54
2022-10-01T16:30:34.074Z,15.21
2022-10-01T16:33:04.639Z,15.47
2022-10-01T16:35:35.674Z,15.00
2022-10-01T16:38:08.215Z,15.48
2022-10-01T16:40:41.637Z,15.59
2022-10-01T16:43:18.698Z,15.35
2022-10-01T16:45:45.938Z,15.64
2022-10-01T16:48:19.562Z,15.62
2022-10-01T16:50:47.283Z,15.50
2022-10-01T16:53:18.158Z,15.51
2022-10-01T16:55:45.914Z,15.62
2022-10-01T16:58:12.962Z,15.54
2022-10-01T17:00:39.971Z,15.17
2022-10-01T17:03:12.133Z,15.57
2022-10-01T17:05:39.175Z,15.55
2022-10-01T17:08:11.286Z,15.73
2022-10-01T17:11:01.148Z,15.75
2022-10-01T17:13:32.694Z,15.37
2022-10-01T17:16:01.043Z,15.40
2022-10-01T17:18:28.349Z,15.53
2022-10-01T17:20:56.164Z,15.42
2022-10-01T17:23:23.492Z,15.43
2022-10-01T17:25:50.644Z,15.81
2022-10-01T17:28:20.164Z,15.37
2022-10-01T17:30:48.606Z,15.35
2022-10-01T17:33:20.844Z,15.41
2022-10-01T17:35:51.765Z,15.48
2022-10-01T17:38:19.418Z,15.35
2022-10-01T17:40:47.419Z,15.06
2022-10-01T17:43:16.206Z,15.70
2022-10-01T17:45:47.369Z,15.72
2022-10-01T17:48:15.521Z,15.41
2022-10-01T17:50:44.997Z,15.04
2022-10-01T17:53:12.841Z,15.50
2022-10-01T17:55:44.633Z,15.51
2022-10-01T17:58:11.963Z,15.77
2022-10-01T18:00:41.149Z,15.85
2022-10-01T18:03:08.009Z,15.73
2022-10-01T18:05:34.946Z,15.88
2022-10-01T18:08:01.921Z,15.63
2022-10-01T18:10:28.706Z,15.95
2022-10-01T18:12:57.393Z,15.73
2022-10-01T18:15:24.311Z,15.78
2022-10-01T18:18:48.493Z,15.99
2022-10-01T18:20:40.952Z,16.02
2022-10-01T18:23:08.118Z,15.91
2022-10-01T18:25:34.929Z,15.64
2022-10-01T18:28:02.068Z,15.70
2022-10-01T18:30:28.889Z,15.69
2022-10-01T18:32:57.359Z,15.53
2022-10-01T18:35:35.089Z,15.76
2022-10-01T18:38:28.414Z,15.51
2022-10-01T18:41:02.858Z,15.44
2022-10-01T18:43:34.736Z,15.60
2022-10-01T18:46:28.873Z,15.76
2022-10-01T18:49:21.748Z,15.96
2022-10-01T18:52:13.108Z,15.87
2022-10-01T18:55:25.215Z,15.96
2022-10-01T18:58:59.271Z,15.88
2022-10-01T19:01:49.024Z,15.85
2022-10-01T19:04:33.598Z,15.87
2022-10-01T19:07:29.333Z,15.83
2022-10-01T19:10:12.313Z,15.81
2022-10-01T19:13:17.142Z,15.77
2022-10-01T19:16:13.078Z,16.01
2022-10-01T19:18:58.345Z,16.01
2022-10-01T19:21:52.729Z,16.05
2022-10-01T19:25:01.067Z,15.92
2022-10-01T19:27:46.365Z,16.13
2022-10-01T19:30:16.427Z,15.91
2022-10-01T19:33:00.176Z,16.11
2022-10-01T19:35:38.295Z,16.01
2022-10-01T19:38:22.272Z,15.96
2022-10-01T19:40:56.305Z,15.98
2022-10-01T19:43:48.239Z,15.86
2022-10-01T19:46:40.335Z,16.01
2022-10-01T19:49:27.411Z,15.93
2022-10-01T19:52:01.565Z,16.02
2022-10-01T19:54:38.812Z,15.72
2022-10-01T19:57:20.693Z,15.84
2022-10-01T19:59:47.911Z,15.82
2022-10-01T20:02:31.449Z,15.61
2022-10-01T20:05:11.325Z,15.96
2022-10-01T20:07:58.640Z,15.74
2022-10-01T20:10:37.099Z,15.45
2022-10-01T20:13:31.420Z,15.50
2022-10-01T20:16:36.202Z,15.78
2022-10-01T20:19:19.749Z,15.82
2022-10-01T20:22:11.710Z,15.81
2022-10-01T20:24:54.059Z,15.68
2022-10-01T20:27:40.611Z,15.89
2022-10-01T20:30:20.020Z,15.86
2022-10-01T20:33:07.129Z,16.08
2022-10-01T20:36:03.921Z,15.83
2022-10-01T20:38:43.654Z,15.48
2022-10-01T20:41:16.932Z,15.82
2022-10-01T20:43:51.397Z,15.78
2022-10-01T20:46:36.328Z,15.76
2022-10-01T20:49:13.905Z,15.94
2022-10-01T20:51:58.577Z,15.96
2022-10-01T20:54:39.113Z,15.43
2022-10-01T20:57:32.721Z,15.82
2022-10-01T21:00:23.146Z,15.85
2022-10-01T21:03:20.070Z,15.80
2022-10-01T21:06:01.168Z,15.79
2022-10-01T21:08:47.457Z,15.84
2022-10-01T21:11:53.018Z,15.81
2022-10-01T21:14:34.326Z,16.09
2022-10-01T21:17:33.934Z,15.81
2022-10-01T21:20:20.998Z,15.93
2022-10-01T21:22:56.682Z,15.84
2022-10-01T21:25:54.072Z,15.76
2022-10-01T21:29:06.551Z,15.97
2022-10-01T21:31:44.703Z,15.91
2022-10-01T21:34:42.420Z,15.78
2022-10-01T21:37:23.374Z,15.90
2022-10-01T21:40:18.194Z,15.84
2022-10-01T21:43:09.554Z,15.96
2022-10-01T21:45:47.676Z,16.00
2022-10-01T21:48:17.165Z,15.93
2022-10-01T21:50:57.016Z,15.75
2022-10-01T21:53:46.091Z,15.98
2022-10-01T21:56:37.323Z,15.70
2022-10-01T21:59:41.745Z,15.70
2022-10-01T22:02:40.777Z,15.78
2022-10-01T22:05:24.821Z,15.40
2022-10-01T22:08:26.820Z,15.77
2022-10-01T22:11:00.740Z,15.65
2022-10-01T22:13:33.093Z,15.74
2022-10-01T22:16:14.328Z,15.99
2022-10-01T22:18:57.542Z,16.01
2022-10-01T22:21:25.902Z,16.02
2022-10-01T22:24:04.806Z,16.08
2022-10-01T22:26:34.687Z,15.97
2022-10-01T22:29:07.351Z,16.13
2022-10-01T22:31:36.627Z,16.06
2022-10-01T22:34:12.996Z,16.01
2022-10-01T22:36:49.033Z,15.92
2022-10-01T22:39:23.577Z,16.11
2022-10-01T22:41:58.510Z,16.09
2022-10-01T22:44:28.237Z,15.93
2022-10-01T22:47:40.990Z,15.95
2022-10-01T22:50:19.947Z,15.92
2022-10-01T22:53:11.649Z,16.00
2022-10-01T22:55:53.036Z,15.87
2022-10-01T22:58:34.888Z,16.02
2022-10-01T23:01:31.598Z,16.07
2022-10-01T23:04:22.448Z,15.98
2022-10-01T23:07:02.940Z,15.96
2022-10-01T23:10:01.234Z,15.92
2022-10-01T23:13:15.243Z,16.06
2022-10-01T23:16:16.192Z,16.21
2022-10-01T23:18:52.993Z,15.99
2022-10-01T23:21:37.822Z,16.14
2022-10-01T23:24:43.534Z,15.90
2022-10-01T23:27:46.204Z,15.84
2022-10-01T23:30:16.819Z,16.13
2022-10-01T23:33:41.621Z,16.01
2022-10-01T23:36:49.842Z,16.28
2022-10-01T23:39:44.382Z,16.01
2022-10-01T23:43:07.605Z,16.17
2022-10-01T23:45:47.851Z,15.85
2022-10-01T23:48:50.319Z,15.76
2022-10-01T23:51:32.067Z,16.15
2022-10-01T23:54:36.441Z,15.96
2022-10-01T23:57:21.572Z,16.18
